Flight Track Log - Related Links

Times and Time Zones

All times are in EDT time to prevent confusion due to time zone crossing. See the AAY846 flight status page for this flight to view local times or setup timezone preferences in your user account.

Time Position Orientation Groundspeed Altitude Reporting Facility
EDT Latitude Longitude Course Direction KTS MPH feet Rate Location/Type
Wed 08:48:15 AM 27.9000 -82.6833 164° South 157 181 700  Level Tampa TRACON
Wed 08:49:09 AM 27.8500 -82.6667 164° South 204 235 2,000 2,053 Climbing Tampa TRACON
Wed 08:50:09 AM 27.7833 -82.6833 192° South 256 295 4,600 2,750 Climbing Tampa TRACON
Wed 08:51:09 AM 27.7333 -82.7333 222° Southwest 251 289 7,500 2,170 Climbing Tampa TRACON
Wed 08:53:17 AM 27.8869 -82.7681 349° North 332 382 11,400 1,404 Climbing Jacksonville Center
Wed 08:54:17 AM 27.9892 -82.7656 North 351 404 11,900 1,150 Climbing Jacksonville Center
Wed 08:55:17 AM 28.0997 -82.7583 North 356 410 13,700 1,931 Climbing Jacksonville Center
Wed 09:01:01 AM 28.6742 -82.8927 333° Northwest 371 427 24,900 1,814 Climbing FlightAware ADS-B
Wed 09:02:17 AM 28.7761 -82.9542 333° Northwest 360 414 26,400 1,095 Climbing Jacksonville Center
Wed 09:03:18 AM 28.8719 -83.0089 333° Northwest 371 427 27,400 850 Climbing Jacksonville Center
Wed 09:04:17 AM 28.9700 -83.0658 333° Northwest 381 438 28,100 908 Climbing Jacksonville Center
Wed 09:05:17 AM 29.0722 -83.1256 333° Northwest 391 450 29,200 900 Climbing Jacksonville Center
Wed 09:06:17 AM 29.1764 -83.1733 338° Northwest 397 457 29,900 800 Climbing Jacksonville Center
Wed 09:07:17 AM 29.2933 -83.2092 345° North 414 476 30,800 800 Climbing Jacksonville Center
Wed 09:08:17 AM 29.4058 -83.2478 343° North 419 482 31,500 457 Climbing Jacksonville Center
Wed 09:14:17 AM 30.1098 -83.4783 344° North 426 490 34,000 382 Climbing FlightAware ADS-B
Wed 09:14:50 AM 30.1719 -83.4990 344° North 424 488 34,000  Level FlightAware ADS-B
Wed 09:15:22 AM 30.2330 -83.5194 344° North 424 488 34,000  Level FlightAware ADS-B
Wed 09:15:57 AM 30.2413 -83.5221 344° North 423 487 34,000  Level FlightAware ADS-B
Wed 09:16:32 AM 30.3578 -83.5612 344° North 423 487 34,000  Level FlightAware ADS-B
Wed 09:17:02 AM 30.3763 -83.5675 344° North 423 487 34,000  Level FlightAware ADS-B
Wed 09:17:39 AM 30.4538 -83.5936 344° North 423 487 34,000 179 Level FlightAware ADS-B
Wed 09:18:09 AM 30.5096 -83.6122 344° North 424 488 34,200 677 Climbing FlightAware ADS-B (KONZ)
Wed 09:18:41 AM 30.6082 -83.6454 344° North 422 486 34,700 857 Climbing FlightAware ADS-B (KONZ)
Wed 09:19:12 AM 30.6666 -83.6651 344° North 419 482 35,100 554 Climbing FlightAware ADS-B (KONZ)
Wed 09:19:46 AM 30.6666 -83.6651 344° North 423 487 35,300 417 Climbing FlightAware ADS-B (KONZ)
Wed 09:20:24 AM 30.6666 -83.6651 344° North 425 489 35,600 457 Climbing FlightAware ADS-B (KONZ)
Wed 09:21:18 AM 30.8693 -83.7336 344° North 427 491 36,000 264 Climbing FlightAware ADS-B
Wed 09:21:55 AM 30.9751 -83.7695 344° North 424 488 36,000  Level FlightAware ADS-B (KONZ)
Wed 09:22:37 AM 31.0543 -83.7964 344° North 419 482 36,000  Level FlightAware ADS-B (KONZ)
Wed 09:23:36 AM 31.1634 -83.8337 344° North 421 484 36,000  Level FlightAware ADS-B (KONZ)
Wed 09:24:27 AM 31.1634 -83.8337 344° North 419 482 36,000  Level FlightAware ADS-B (KONZ)
Wed 09:24:58 AM 31.2978 -83.8808 344° North 416 479 36,000  Level Atlanta Center
Wed 09:25:58 AM 31.4083 -83.9197 343° North 416 479 36,000  Level Atlanta Center
Wed 09:26:58 AM 31.5275 -83.9633 343° North 416 479 36,000  Level Atlanta Center
Wed 09:27:58 AM 31.6297 -84.0194 335° Northwest 405 466 36,000  Level Atlanta Center
Wed 09:28:58 AM 31.7342 -84.0756 335° Northwest 405 466 36,000  Level Atlanta Center
Wed 09:29:58 AM 31.8383 -84.1342 334° Northwest 405 466 36,000  Level Atlanta Center
Wed 09:30:58 AM 31.9386 -84.1881 335° Northwest 405 466 36,000  Level Atlanta Center
Wed 09:31:58 AM 32.0428 -84.2422 336° Northwest 405 466 36,000  Level Atlanta Center
Wed 09:32:58 AM 32.1472 -84.3014 334° Northwest 405 466 36,000 200 Level Atlanta Center
Wed 09:33:58 AM 32.2472 -84.3581 334° Northwest 405 466 36,400 450 Climbing Atlanta Center
Wed 09:34:58 AM 32.3492 -84.4125 336° Northwest 405 466 36,900 450 Climbing Atlanta Center
Wed 09:35:58 AM 32.4514 -84.4719 334° Northwest 405 466 37,300 500 Climbing Atlanta Center
Wed 09:36:58 AM 32.5556 -84.5292 335° Northwest 405 466 37,900 350 Climbing Atlanta Center
Wed 09:37:58 AM 32.6575 -84.5867 335° Northwest 405 466 38,000 50 Climbing Atlanta Center
Wed 09:38:58 AM 32.7594 -84.6439 335° Northwest 405 466 38,000  Level Atlanta Center
Wed 09:39:58 AM 32.8511 -84.7014 332° Northwest 405 466 38,000  Level Atlanta Center
Wed 09:40:58 AM 32.9531 -84.7592 335° Northwest 405 466 38,000 15 Level Atlanta Center
Wed 09:46:50 AM 33.5909 -85.1147 334° Northwest 408 470 38,100  Climbing FlightAware ADS-B (KDZJ)
Wed 09:47:20 AM 33.6417 -85.1439 334° Northwest 399 459 38,000 -92 Descending FlightAware ADS-B (KDZJ)
Wed 09:47:55 AM 33.7008 -85.1781 334° Northwest 398 458 38,000  Level FlightAware ADS-B (KDZJ)
Wed 09:48:40 AM 33.7779 -85.2223 334° Northwest 398 458 38,000  Level FlightAware ADS-B (KDZJ)
Wed 09:49:24 AM 33.8103 -85.2419 334° Northwest 407 468 38,000  Level Memphis Center
Wed 09:49:58 AM 33.8881 -85.2900 333° Northwest 404 465 38,000  Level Atlanta Center
Wed 09:50:58 AM 33.9897 -85.3467 335° Northwest 404 465 38,000  Level Atlanta Center
Wed 09:51:58 AM 34.0789 -85.3981 334° Northwest 399 459 38,000  Level Atlanta Center
Wed 09:52:58 AM 34.1786 -85.4550 335° Northwest 399 459 38,000  Level Atlanta Center
Wed 09:53:58 AM 34.2800 -85.5144 334° Northwest 404 465 38,000  Level Atlanta Center
Wed 09:54:58 AM 34.3836 -85.5742 335° Northwest 404 465 38,000  Level Atlanta Center
Wed 09:55:58 AM 34.4811 -85.6339 333° Northwest 399 459 38,000  Level Atlanta Center
Wed 09:56:58 AM 34.5806 -85.6939 334° Northwest 399 459 38,000  Level Atlanta Center
Wed 09:57:58 AM 34.6797 -85.7514 335° Northwest 399 459 38,000  Level Atlanta Center
Wed 09:58:58 AM 34.7811 -85.8142 333° Northwest 404 465 38,000  Level Atlanta Center
Wed 09:59:58 AM 34.8847 -85.8694 336° Northwest 404 465 38,000  Level Atlanta Center
Wed 10:00:58 AM 34.9839 -85.9300 333° Northwest 404 465 38,000  Level Atlanta Center
Wed 10:02:51 AM 35.1656 -86.0408 333° Northwest 403 464 38,000  Level Memphis Center
Wed 10:03:53 AM 35.2872 -86.1128 334° Northwest 403 464 38,000  Level Memphis Center
Wed 10:04:55 AM 35.3875 -86.1753 333° Northwest 403 464 38,000  Level Memphis Center
Wed 10:05:57 AM 35.4881 -86.2367 334° Northwest 403 464 38,000  Level Memphis Center
Wed 10:06:59 AM 35.5914 -86.3008 333° Northwest 406 467 38,000  Level Memphis Center
Wed 10:08:02 AM 35.6931 -86.3633 333° Northwest 406 467 38,000  Level Memphis Center
Wed 10:09:04 AM 35.7944 -86.4278 333° Northwest 406 467 38,000  Level Memphis Center
Wed 10:15:13 AM 36.4354 -86.8280 333° Northwest 411 473 38,000  Level FlightAware ADS-B (EPWR / WRO)
Wed 10:15:45 AM 36.4924 -86.8641 333° Northwest 412 474 38,000  Level FlightAware ADS-B (EPWR / WRO)
Wed 10:16:29 AM 36.5643 -86.9100 333° Northwest 412 474 38,000  Level FlightAware ADS-B (EPWR / WRO)
Wed 10:17:00 AM 36.6218 -86.9467 333° Northwest 413 475 38,000  Level FlightAware ADS-B (EPWR / WRO)
Wed 10:17:59 AM 36.6722 -86.9788 333° Northwest 415 478 38,000 59 Level FlightAware ADS-B (EPWR / WRO)
Wed 10:18:41 AM 36.6722 -86.9788 333° Northwest 416 479 38,100  Climbing FlightAware ADS-B (EPWR / WRO)
Wed 10:20:05 AM 36.5284 -86.8870 333° Northwest 413 475 38,000 -39 Descending FlightAware ADS-B
Wed 10:21:14 AM 36.6722 -86.9788 333° Northwest 413 475 38,000  Level FlightAware ADS-B (EPWR / WRO)
Wed 10:24:00 AM 37.3202 -87.3965 333° Northwest 403 464 38,000  Level FlightAware ADS-B (EPWR / WRO)
Wed 10:25:26 AM 37.4663 -87.4918 333° Northwest 403 464 38,000  Level FlightAware ADS-B
Wed 10:26:39 AM 37.6006 -87.5798 332° Northwest 406 467 38,000  Level FlightAware ADS-B
Wed 10:27:35 AM 37.6489 -87.6115 332° Northwest 405 466 38,000 -458 Level FlightAware ADS-B
Wed 10:29:03 AM 37.6489 -87.6115 332° Northwest 405 466 36,900 -692 Descending FlightAware ADS-B
Wed 10:29:45 AM 37.9039 -87.7792 332° Northwest 406 467 36,500 -643 Descending Memphis Center
Wed 10:30:27 AM 37.9581 -87.8144 333° Northwest 406 467 36,000 -291 Descending Indianapolis Center
Wed 10:31:28 AM 38.0819 -87.8975 332° Northwest 412 474 36,000  Level Indianapolis Center
Wed 10:32:30 AM 38.1844 -87.9667 332° Northwest 412 474 36,000 -341 Level Indianapolis Center
Wed 10:33:31 AM 38.2869 -88.0350 332° Northwest 412 474 35,300 -829 Descending Indianapolis Center
Wed 10:34:33 AM 38.3903 -88.1042 332° Northwest 413 475 34,300 -941 Descending Indianapolis Center
Wed 10:35:13 AM 38.4525 -88.1475 331° Northwest 414 476 33,700 -941 Descending Kansas City Center
Wed 10:36:15 AM 38.5553 -88.2172 332° Northwest 414 476 32,700 -919 Descending Kansas City Center
Wed 10:37:17 AM 38.6578 -88.2867 332° Northwest 414 476 31,800 -927 Descending Kansas City Center
Wed 10:38:18 AM 38.7578 -88.3550 332° Northwest 413 475 30,800 -976 Descending Kansas City Center
Wed 10:39:20 AM 38.8583 -88.4242 332° Northwest 410 472 29,800 -968 Descending Kansas City Center
Wed 10:40:22 AM 38.9586 -88.4922 332° Northwest 409 471 28,800 -1,073 Descending Kansas City Center
Wed 10:41:23 AM 39.0781 -88.5725 332° Northwest 406 467 27,600 -1,024 Descending Kansas City Center
Wed 10:42:25 AM 39.1747 -88.6386 332° Northwest 400 460 26,700 -919 Descending Kansas City Center
Wed 10:43:27 AM 39.2672 -88.7025 332° Northwest 392 451 25,700 -927 Descending Kansas City Center
Wed 10:44:28 AM 39.3508 -88.7603 332° Northwest 367 422 24,800 -927 Descending Kansas City Center
Wed 10:45:30 AM 39.4381 -88.8214 332° Northwest 363 418 23,800 -919 Descending Kansas City Center
Wed 10:46:32 AM 39.5231 -88.8819 331° Northwest 358 412 22,900 -919 Descending Kansas City Center
Wed 10:47:34 AM 39.6089 -88.9417 332° Northwest 351 404 21,900 -1,659 Descending Kansas City Center
Wed 10:48:35 AM 39.7100 -89.0122 332° Northwest 350 403 19,500 -2,098 Descending Kansas City Center
Wed 10:49:37 AM 39.7917 -89.0706 331° Northwest 343 395 17,600 -1,839 Descending Kansas City Center
Wed 10:50:39 AM 39.8731 -89.1269 332° Northwest 337 388 15,700 -1,790 Descending Kansas City Center
Wed 10:51:41 AM 39.9522 -89.1822 332° Northwest 329 379 13,900 -1,694 Descending Kansas City Center
Wed 10:52:43 AM 40.0297 -89.2364 332° Northwest 323 372 12,200 -1,355 Descending Kansas City Center
Wed 10:53:45 AM 40.1017 -89.2875 331° Northwest 307 353 11,100 -1,174 Descending Kansas City Center
Wed 10:55:01 AM 40.1986 -89.3286 342° North 263 303 9,500 -1,435 Descending Chicago Center
Wed 10:56:03 AM 40.2628 -89.3569 341° North 247 284 7,800 -1,561 Descending Chicago Center
Wed 10:57:04 AM 40.3244 -89.3839 342° North 238 274 6,300 -1,574 Descending Chicago Center
Wed 10:58:05 AM 40.3828 -89.4133 339° North 229 264 4,600 -1,561 Descending Chicago Center
Wed 10:59:07 AM 40.4428 -89.4478 336° Northwest 231 266 3,100 -1,073 Descending Chicago Center
Wed 11:00:08 AM 40.4994 -89.4664 346° North 221 254 2,400 -344 Descending Chicago Center
Wed 11:01:09 AM 40.5467 -89.4928 337° Northwest 202 232 2,400  Level Chicago Center
Wed 11:02:10 AM 40.5831 -89.5531 308° West 185 213 2,400  Level Chicago Center
Wed 11:03:12 AM 40.6083 -89.5972 307° West 167 192 2,400 -341 Level Chicago Center
Wed 11:04:13 AM 40.6292 -89.6347 306° West 146 168 1,700 -689 Descending Chicago Center
Wed 11:05:14 AM 40.6497 -89.6706 307° West 132 152 1,000 -492 Descending Chicago Center
Wed 11:06:15 AM 40.6689 -89.7053 306° West 130 150 700 -295 Descending Chicago Center

Login

Don't have an account? Register now (free) for customized features, flight alerts, and more!